sensor_id;sensor_type;location;lat;lon;timestamp;temperature;humidity
63017;DHT22;50274;45.640;11.756;2023-11-19T00:00:33;7.00;66.00
63017;DHT22;50274;45.640;11.756;2023-11-19T00:03:00;7.00;66.00
63017;DHT22;50274;45.640;11.756;2023-11-19T00:05:25;7.00;66.00
63017;DHT22;50274;45.640;11.756;2023-11-19T00:07:53;7.00;66.10
63017;DHT22;50274;45.640;11.756;2023-11-19T00:10:20;7.00;66.10
63017;DHT22;50274;45.640;11.756;2023-11-19T00:12:49;7.00;66.10
63017;DHT22;50274;45.640;11.756;2023-11-19T00:15:16;7.00;66.10
63017;DHT22;50274;45.640;11.756;2023-11-19T00:17:45;7.00;66.10
63017;DHT22;50274;45.640;11.756;2023-11-19T00:20:12;7.00;66.10
63017;DHT22;50274;45.640;11.756;2023-11-19T00:22:38;7.00;66.20
63017;DHT22;50274;45.640;11.756;2023-11-19T00:25:04;6.90;66.20
63017;DHT22;50274;45.640;11.756;2023-11-19T00:27:31;6.90;66.20
63017;DHT22;50274;45.640;11.756;2023-11-19T00:29:57;6.90;66.20
63017;DHT22;50274;45.640;11.756;2023-11-19T00:32:23;6.90;66.30
63017;DHT22;50274;45.640;11.756;2023-11-19T00:34:49;6.90;66.30
63017;DHT22;50274;45.640;11.756;2023-11-19T00:37:15;6.90;66.30
63017;DHT22;50274;45.640;11.756;2023-11-19T00:39:44;6.90;66.40
63017;DHT22;50274;45.640;11.756;2023-11-19T00:42:11;6.90;66.40
63017;DHT22;50274;45.640;11.756;2023-11-19T00:44:37;6.80;66.50
63017;DHT22;50274;45.640;11.756;2023-11-19T00:47:03;6.90;66.50
63017;DHT22;50274;45.640;11.756;2023-11-19T00:49:29;6.80;66.60
63017;DHT22;50274;45.640;11.756;2023-11-19T00:51:55;6.80;66.60
63017;DHT22;50274;45.640;11.756;2023-11-19T00:54:21;6.80;66.60
63017;DHT22;50274;45.640;11.756;2023-11-19T00:56:46;6.80;66.60
63017;DHT22;50274;45.640;11.756;2023-11-19T00:59:12;6.80;66.60
63017;DHT22;50274;45.640;11.756;2023-11-19T01:01:39;6.80;66.70
63017;DHT22;50274;45.640;11.756;2023-11-19T01:04:05;6.80;66.70
63017;DHT22;50274;45.640;11.756;2023-11-19T01:06:32;6.80;66.80
63017;DHT22;50274;45.640;11.756;2023-11-19T01:08:58;6.70;66.80
63017;DHT22;50274;45.640;11.756;2023-11-19T01:11:24;6.70;66.90
63017;DHT22;50274;45.640;11.756;2023-11-19T01:13:51;6.70;66.80
63017;DHT22;50274;45.640;11.756;2023-11-19T01:16:18;6.80;66.90
63017;DHT22;50274;45.640;11.756;2023-11-19T01:18:44;6.80;67.00
63017;DHT22;50274;45.640;11.756;2023-11-19T01:21:12;6.70;67.00
63017;DHT22;50274;45.640;11.756;2023-11-19T01:23:40;6.70;67.10
63017;DHT22;50274;45.640;11.756;2023-11-19T01:26:08;6.80;67.10
63017;DHT22;50274;45.640;11.756;2023-11-19T01:28:36;6.70;67.20
63017;DHT22;50274;45.640;11.756;2023-11-19T01:31:02;6.70;67.20
63017;DHT22;50274;45.640;11.756;2023-11-19T01:33:29;6.70;67.40
63017;DHT22;50274;45.640;11.756;2023-11-19T01:35:55;6.80;67.40
63017;DHT22;50274;45.640;11.756;2023-11-19T01:38:24;6.80;67.40
63017;DHT22;50274;45.640;11.756;2023-11-19T01:40:50;6.80;67.40
63017;DHT22;50274;45.640;11.756;2023-11-19T01:43:36;6.80;67.50
63017;DHT22;50274;45.640;11.756;2023-11-19T01:46:05;6.80;67.50
63017;DHT22;50274;45.640;11.756;2023-11-19T01:48:34;6.80;67.50
63017;DHT22;50274;45.640;11.756;2023-11-19T01:51:02;6.80;67.60
63017;DHT22;50274;45.640;11.756;2023-11-19T01:53:29;6.80;67.60
63017;DHT22;50274;45.640;11.756;2023-11-19T01:55:56;6.90;67.70
63017;DHT22;50274;45.640;11.756;2023-11-19T01:58:23;6.90;67.90
63017;DHT22;50274;45.640;11.756;2023-11-19T02:00:50;6.90;67.80
63017;DHT22;50274;45.640;11.756;2023-11-19T02:03:16;6.90;67.80
63017;DHT22;50274;45.640;11.756;2023-11-19T02:05:42;7.00;67.80
63017;DHT22;50274;45.640;11.756;2023-11-19T02:08:08;6.90;67.80
63017;DHT22;50274;45.640;11.756;2023-11-19T02:10:34;7.00;67.80
63017;DHT22;50274;45.640;11.756;2023-11-19T02:13:01;7.00;67.70
63017;DHT22;50274;45.640;11.756;2023-11-19T02:15:26;7.00;67.70
63017;DHT22;50274;45.640;11.756;2023-11-19T02:17:53;6.90;67.70
63017;DHT22;50274;45.640;11.756;2023-11-19T02:20:19;6.90;67.80
63017;DHT22;50274;45.640;11.756;2023-11-19T02:22:48;6.90;67.80
63017;DHT22;50274;45.640;11.756;2023-11-19T02:25:32;6.90;67.90
63017;DHT22;50274;45.640;11.756;2023-11-19T02:28:01;6.90;68.00
63017;DHT22;50274;45.640;11.756;2023-11-19T02:30:27;6.90;67.90
63017;DHT22;50274;45.640;11.756;2023-11-19T02:32:54;6.90;68.00
63017;DHT22;50274;45.640;11.756;2023-11-19T02:35:23;6.80;68.00
63017;DHT22;50274;45.640;11.756;2023-11-19T02:37:49;6.80;68.00
63017;DHT22;50274;45.640;11.756;2023-11-19T02:40:15;6.80;68.00
63017;DHT22;50274;45.640;11.756;2023-11-19T02:42:41;6.80;68.10
63017;DHT22;50274;45.640;11.756;2023-11-19T02:45:07;6.80;68.10
63017;DHT22;50274;45.640;11.756;2023-11-19T02:47:40;6.80;68.20
63017;DHT22;50274;45.640;11.756;2023-11-19T02:50:06;6.70;68.10
63017;DHT22;50274;45.640;11.756;2023-11-19T02:52:39;6.70;68.20
63017;DHT22;50274;45.640;11.756;2023-11-19T02:55:05;6.70;68.20
63017;DHT22;50274;45.640;11.756;2023-11-19T02:57:41;6.70;68.10
63017;DHT22;50274;45.640;11.756;2023-11-19T03:00:17;6.70;68.10
63017;DHT22;50274;45.640;11.756;2023-11-19T03:02:44;6.70;68.10
63017;DHT22;50274;45.640;11.756;2023-11-19T03:05:14;6.70;68.10
63017;DHT22;50274;45.640;11.756;2023-11-19T03:07:43;6.70;68.10
63017;DHT22;50274;45.640;11.756;2023-11-19T03:10:12;6.70;68.20
63017;DHT22;50274;45.640;11.756;2023-11-19T03:12:44;6.60;68.20
63017;DHT22;50274;45.640;11.756;2023-11-19T03:15:11;6.60;68.20
63017;DHT22;50274;45.640;11.756;2023-11-19T03:17:41;6.60;68.30
63017;DHT22;50274;45.640;11.756;2023-11-19T03:20:09;6.50;68.30
63017;DHT22;50274;45.640;11.756;2023-11-19T03:22:39;6.50;68.30
63017;DHT22;50274;45.640;11.756;2023-11-19T03:25:07;6.50;68.30
63017;DHT22;50274;45.640;11.756;2023-11-19T03:27:35;6.50;68.30
63017;DHT22;50274;45.640;11.756;2023-11-19T03:30:02;6.50;68.30
63017;DHT22;50274;45.640;11.756;2023-11-19T03:32:31;6.50;68.30
63017;DHT22;50274;45.640;11.756;2023-11-19T03:34:57;6.50;68.40
63017;DHT22;50274;45.640;11.756;2023-11-19T03:37:23;6.40;68.40
63017;DHT22;50274;45.640;11.756;2023-11-19T03:39:49;6.40;68.40
63017;DHT22;50274;45.640;11.756;2023-11-19T03:42:15;6.40;68.40
63017;DHT22;50274;45.640;11.756;2023-11-19T03:44:41;6.40;68.40
63017;DHT22;50274;45.640;11.756;2023-11-19T03:47:06;6.40;68.50
63017;DHT22;50274;45.640;11.756;2023-11-19T03:49:32;6.40;68.50
63017;DHT22;50274;45.640;11.756;2023-11-19T03:51:58;6.40;68.50
63017;DHT22;50274;45.640;11.756;2023-11-19T03:54:24;6.40;68.50
63017;DHT22;50274;45.640;11.756;2023-11-19T03:56:50;6.40;68.50
63017;DHT22;50274;45.640;11.756;2023-11-19T03:59:15;6.30;68.50
63017;DHT22;50274;45.640;11.756;2023-11-19T04:01:41;6.30;68.60
63017;DHT22;50274;45.640;11.756;2023-11-19T04:04:07;6.30;68.70
63017;DHT22;50274;45.640;11.756;2023-11-19T04:06:33;6.30;68.70
63017;DHT22;50274;45.640;11.756;2023-11-19T04:08:58;6.30;68.60
63017;DHT22;50274;45.640;11.756;2023-11-19T04:11:24;6.30;68.60
63017;DHT22;50274;45.640;11.756;2023-11-19T04:13:50;6.30;68.70
63017;DHT22;50274;45.640;11.756;2023-11-19T04:16:16;6.20;68.70
63017;DHT22;50274;45.640;11.756;2023-11-19T04:18:41;6.20;68.70
63017;DHT22;50274;45.640;11.756;2023-11-19T04:21:08;6.20;68.70
63017;DHT22;50274;45.640;11.756;2023-11-19T04:23:33;6.20;68.70
63017;DHT22;50274;45.640;11.756;2023-11-19T04:26:02;6.20;68.70
63017;DHT22;50274;45.640;11.756;2023-11-19T04:28:30;6.20;68.70
63017;DHT22;50274;45.640;11.756;2023-11-19T04:30:56;6.10;68.70
63017;DHT22;50274;45.640;11.756;2023-11-19T04:33:21;6.10;68.80
63017;DHT22;50274;45.640;11.756;2023-11-19T04:35:47;6.10;68.80
63017;DHT22;50274;45.640;11.756;2023-11-19T04:38:13;6.00;69.00
63017;DHT22;50274;45.640;11.756;2023-11-19T04:40:40;6.00;69.10
63017;DHT22;50274;45.640;11.756;2023-11-19T04:43:05;6.10;69.10
63017;DHT22;50274;45.640;11.756;2023-11-19T04:45:32;6.10;69.20
63017;DHT22;50274;45.640;11.756;2023-11-19T04:47:58;6.10;69.10
63017;DHT22;50274;45.640;11.756;2023-11-19T04:50:24;6.10;69.10
63017;DHT22;50274;45.640;11.756;2023-11-19T04:52:52;6.00;69.10
63017;DHT22;50274;45.640;11.756;2023-11-19T04:55:19;6.10;69.10
63017;DHT22;50274;45.640;11.756;2023-11-19T04:57:45;6.00;69.10
63017;DHT22;50274;45.640;11.756;2023-11-19T05:00:11;6.00;69.10
63017;DHT22;50274;45.640;11.756;2023-11-19T05:02:37;6.00;69.10
63017;DHT22;50274;45.640;11.756;2023-11-19T05:05:03;6.00;69.10
63017;DHT22;50274;45.640;11.756;2023-11-19T05:07:30;6.00;69.10
63017;DHT22;50274;45.640;11.756;2023-11-19T05:09:56;6.00;69.10
63017;DHT22;50274;45.640;11.756;2023-11-19T05:12:22;6.00;69.10
63017;DHT22;50274;45.640;11.756;2023-11-19T05:14:48;6.00;69.10
63017;DHT22;50274;45.640;11.756;2023-11-19T05:17:15;6.00;69.10
63017;DHT22;50274;45.640;11.756;2023-11-19T05:19:41;6.00;69.10
63017;DHT22;50274;45.640;11.756;2023-11-19T05:22:07;5.90;69.20
63017;DHT22;50274;45.640;11.756;2023-11-19T05:24:33;5.90;69.20
63017;DHT22;50274;45.640;11.756;2023-11-19T05:26:59;5.90;69.20
63017;DHT22;50274;45.640;11.756;2023-11-19T05:29:25;5.90;69.20
63017;DHT22;50274;45.640;11.756;2023-11-19T05:31:51;5.90;69.30
63017;DHT22;50274;45.640;11.756;2023-11-19T05:34:16;5.90;69.30
63017;DHT22;50274;45.640;11.756;2023-11-19T05:36:42;5.80;69.30
63017;DHT22;50274;45.640;11.756;2023-11-19T05:39:08;5.80;69.30
63017;DHT22;50274;45.640;11.756;2023-11-19T05:41:36;5.80;69.40
63017;DHT22;50274;45.640;11.756;2023-11-19T05:44:02;5.80;69.50
63017;DHT22;50274;45.640;11.756;2023-11-19T05:46:28;5.80;69.50
63017;DHT22;50274;45.640;11.756;2023-11-19T05:48:54;5.70;69.50
63017;DHT22;50274;45.640;11.756;2023-11-19T05:51:20;5.80;69.60
63017;DHT22;50274;45.640;11.756;2023-11-19T05:53:46;5.70;69.60
63017;DHT22;50274;45.640;11.756;2023-11-19T05:56:11;5.70;69.50
63017;DHT22;50274;45.640;11.756;2023-11-19T05:58:38;5.70;69.50
63017;DHT22;50274;45.640;11.756;2023-11-19T06:01:05;5.70;69.50
63017;DHT22;50274;45.640;11.756;2023-11-19T06:03:33;5.70;69.60
63017;DHT22;50274;45.640;11.756;2023-11-19T06:05:58;5.70;69.60
63017;DHT22;50274;45.640;11.756;2023-11-19T06:08:24;5.60;69.60
63017;DHT22;50274;45.640;11.756;2023-11-19T06:10:52;5.70;69.70
63017;DHT22;50274;45.640;11.756;2023-11-19T06:13:18;5.70;69.70
63017;DHT22;50274;45.640;11.756;2023-11-19T06:15:45;5.70;69.60
63017;DHT22;50274;45.640;11.756;2023-11-19T06:18:11;5.60;69.60
63017;DHT22;50274;45.640;11.756;2023-11-19T06:20:40;5.60;69.60
63017;DHT22;50274;45.640;11.756;2023-11-19T06:23:06;5.60;69.60
63017;DHT22;50274;45.640;11.756;2023-11-19T06:25:32;5.60;69.70
63017;DHT22;50274;45.640;11.756;2023-11-19T06:27:58;5.60;69.70
63017;DHT22;50274;45.640;11.756;2023-11-19T06:30:24;5.50;69.70
63017;DHT22;50274;45.640;11.756;2023-11-19T06:32:51;5.50;69.70
63017;DHT22;50274;45.640;11.756;2023-11-19T06:35:17;5.50;69.70
63017;DHT22;50274;45.640;11.756;2023-11-19T06:37:42;5.50;69.70
63017;DHT22;50274;45.640;11.756;2023-11-19T06:40:09;5.50;69.80
63017;DHT22;50274;45.640;11.756;2023-11-19T06:42:35;5.60;69.90
63017;DHT22;50274;45.640;11.756;2023-11-19T06:45:02;5.60;69.80
63017;DHT22;50274;45.640;11.756;2023-11-19T06:47:29;5.60;69.80
63017;DHT22;50274;45.640;11.756;2023-11-19T06:49:55;5.60;69.80
63017;DHT22;50274;45.640;11.756;2023-11-19T06:52:21;5.60;69.90
63017;DHT22;50274;45.640;11.756;2023-11-19T06:54:47;5.60;69.90
63017;DHT22;50274;45.640;11.756;2023-11-19T06:57:13;5.60;69.90
63017;DHT22;50274;45.640;11.756;2023-11-19T06:59:39;5.60;70.10
63017;DHT22;50274;45.640;11.756;2023-11-19T07:02:06;5.60;69.90
63017;DHT22;50274;45.640;11.756;2023-11-19T07:04:32;5.60;69.90
63017;DHT22;50274;45.640;11.756;2023-11-19T07:06:59;5.60;69.90
63017;DHT22;50274;45.640;11.756;2023-11-19T07:09:25;5.70;69.90
63017;DHT22;50274;45.640;11.756;2023-11-19T07:11:51;5.70;69.90
63017;DHT22;50274;45.640;11.756;2023-11-19T07:14:18;5.70;69.90
63017;DHT22;50274;45.640;11.756;2023-11-19T07:16:44;5.70;69.90
63017;DHT22;50274;45.640;11.756;2023-11-19T07:19:11;5.80;70.00
63017;DHT22;50274;45.640;11.756;2023-11-19T07:21:41;5.80;69.90
63017;DHT22;50274;45.640;11.756;2023-11-19T07:24:10;5.80;70.00
63017;DHT22;50274;45.640;11.756;2023-11-19T07:26:43;5.90;70.00
63017;DHT22;50274;45.640;11.756;2023-11-19T07:29:10;5.90;70.10
63017;DHT22;50274;45.640;11.756;2023-11-19T07:31:36;6.00;70.10
63017;DHT22;50274;45.640;11.756;2023-11-19T07:34:02;6.00;70.30
63017;DHT22;50274;45.640;11.756;2023-11-19T07:36:29;6.10;70.20
63017;DHT22;50274;45.640;11.756;2023-11-19T07:38:54;6.10;70.20
63017;DHT22;50274;45.640;11.756;2023-11-19T07:41:23;6.20;70.40
63017;DHT22;50274;45.640;11.756;2023-11-19T07:43:51;6.30;70.50
63017;DHT22;50274;45.640;11.756;2023-11-19T07:46:17;6.30;70.40
63017;DHT22;50274;45.640;11.756;2023-11-19T07:48:45;6.40;70.30
63017;DHT22;50274;45.640;11.756;2023-11-19T07:51:14;6.40;70.30
63017;DHT22;50274;45.640;11.756;2023-11-19T07:53:41;6.50;70.80
63017;DHT22;50274;45.640;11.756;2023-11-19T07:56:08;6.60;70.80
63017;DHT22;50274;45.640;11.756;2023-11-19T07:58:34;6.70;71.10
63017;DHT22;50274;45.640;11.756;2023-11-19T08:01:00;6.80;71.10
63017;DHT22;50274;45.640;11.756;2023-11-19T08:03:27;6.90;70.80
63017;DHT22;50274;45.640;11.756;2023-11-19T08:05:55;7.00;70.60
63017;DHT22;50274;45.640;11.756;2023-11-19T08:08:22;7.10;70.20
63017;DHT22;50274;45.640;11.756;2023-11-19T08:10:48;7.30;70.30
63017;DHT22;50274;45.640;11.756;2023-11-19T08:13:14;7.40;70.30
63017;DHT22;50274;45.640;11.756;2023-11-19T08:15:41;7.50;69.80
63017;DHT22;50274;45.640;11.756;2023-11-19T08:18:07;7.60;69.60
63017;DHT22;50274;45.640;11.756;2023-11-19T08:20:33;7.80;69.40
63017;DHT22;50274;45.640;11.756;2023-11-19T08:22:59;8.00;69.30
63017;DHT22;50274;45.640;11.756;2023-11-19T08:25:25;8.10;69.00
63017;DHT22;50274;45.640;11.756;2023-11-19T08:27:51;8.20;68.90
63017;DHT22;50274;45.640;11.756;2023-11-19T08:30:18;8.30;68.60
63017;DHT22;50274;45.640;11.756;2023-11-19T08:32:44;8.50;68.50
63017;DHT22;50274;45.640;11.756;2023-11-19T08:35:10;8.60;68.50
63017;DHT22;50274;45.640;11.756;2023-11-19T08:37:36;8.70;68.30
63017;DHT22;50274;45.640;11.756;2023-11-19T08:40:03;8.90;68.00
63017;DHT22;50274;45.640;11.756;2023-11-19T08:42:30;9.00;67.80
63017;DHT22;50274;45.640;11.756;2023-11-19T08:44:56;9.20;67.50
63017;DHT22;50274;45.640;11.756;2023-11-19T08:47:22;9.20;67.60
63017;DHT22;50274;45.640;11.756;2023-11-19T08:49:53;9.40;67.40
63017;DHT22;50274;45.640;11.756;2023-11-19T08:52:20;9.50;67.20
63017;DHT22;50274;45.640;11.756;2023-11-19T08:54:46;9.70;67.00
63017;DHT22;50274;45.640;11.756;2023-11-19T08:57:12;9.80;66.60
63017;DHT22;50274;45.640;11.756;2023-11-19T08:59:38;10.00;66.20
63017;DHT22;50274;45.640;11.756;2023-11-19T09:02:06;10.10;66.10
63017;DHT22;50274;45.640;11.756;2023-11-19T09:04:33;10.20;65.80
63017;DHT22;50274;45.640;11.756;2023-11-19T09:06:59;10.30;65.50
63017;DHT22;50274;45.640;11.756;2023-11-19T09:09:25;10.40;65.20
63017;DHT22;50274;45.640;11.756;2023-11-19T09:11:51;10.50;64.70
63017;DHT22;50274;45.640;11.756;2023-11-19T09:14:17;10.60;64.40
63017;DHT22;50274;45.640;11.756;2023-11-19T09:16:43;10.80;64.10
63017;DHT22;50274;45.640;11.756;2023-11-19T09:19:09;10.80;63.70
63017;DHT22;50274;45.640;11.756;2023-11-19T09:21:35;10.90;63.30
63017;DHT22;50274;45.640;11.756;2023-11-19T09:24:04;10.90;63.00
63017;DHT22;50274;45.640;11.756;2023-11-19T09:26:30;11.00;63.10
63017;DHT22;50274;45.640;11.756;2023-11-19T09:28:56;11.10;63.10
63017;DHT22;50274;45.640;11.756;2023-11-19T09:31:22;11.20;62.90
63017;DHT22;50274;45.640;11.756;2023-11-19T09:33:48;11.30;62.00
63017;DHT22;50274;45.640;11.756;2023-11-19T09:36:14;11.50;61.90
63017;DHT22;50274;45.640;11.756;2023-11-19T09:38:49;11.50;61.50
63017;DHT22;50274;45.640;11.756;2023-11-19T09:41:16;11.70;61.40
63017;DHT22;50274;45.640;11.756;2023-11-19T09:43:42;11.80;61.40
63017;DHT22;50274;45.640;11.756;2023-11-19T09:46:13;12.00;61.10
63017;DHT22;50274;45.640;11.756;2023-11-19T09:48:41;12.00;60.60
63017;DHT22;50274;45.640;11.756;2023-11-19T09:51:09;12.20;60.00
63017;DHT22;50274;45.640;11.756;2023-11-19T09:53:36;12.30;59.40
63017;DHT22;50274;45.640;11.756;2023-11-19T09:56:03;12.50;58.80
63017;DHT22;50274;45.640;11.756;2023-11-19T09:58:30;12.60;58.20
63017;DHT22;50274;45.640;11.756;2023-11-19T10:00:59;12.80;57.80
63017;DHT22;50274;45.640;11.756;2023-11-19T10:03:27;13.00;57.60
63017;DHT22;50274;45.640;11.756;2023-11-19T10:05:56;13.10;57.20
63017;DHT22;50274;45.640;11.756;2023-11-19T10:08:22;13.20;56.40
63017;DHT22;50274;45.640;11.756;2023-11-19T10:10:48;13.30;56.90
63017;DHT22;50274;45.640;11.756;2023-11-19T10:13:14;13.50;56.90
63017;DHT22;50274;45.640;11.756;2023-11-19T10:15:40;13.60;56.40
63017;DHT22;50274;45.640;11.756;2023-11-19T10:18:07;13.80;56.20
63017;DHT22;50274;45.640;11.756;2023-11-19T10:20:36;14.00;55.80
63017;DHT22;50274;45.640;11.756;2023-11-19T10:23:03;14.10;54.50
63017;DHT22;50274;45.640;11.756;2023-11-19T10:25:29;14.30;53.60
63017;DHT22;50274;45.640;11.756;2023-11-19T10:27:56;14.50;53.50
63017;DHT22;50274;45.640;11.756;2023-11-19T10:30:23;14.70;52.70
63017;DHT22;50274;45.640;11.756;2023-11-19T10:33:07;14.80;50.60
63017;DHT22;50274;45.640;11.756;2023-11-19T10:35:34;15.00;49.50
63017;DHT22;50274;45.640;11.756;2023-11-19T10:38:26;15.00;49.70
63017;DHT22;50274;45.640;11.756;2023-11-19T10:40:54;15.10;50.10
63017;DHT22;50274;45.640;11.756;2023-11-19T10:43:21;15.30;50.30
63017;DHT22;50274;45.640;11.756;2023-11-19T10:45:51;15.50;50.30
63017;DHT22;50274;45.640;11.756;2023-11-19T10:48:17;15.50;48.60
63017;DHT22;50274;45.640;11.756;2023-11-19T10:50:44;15.50;48.80
63017;DHT22;50274;45.640;11.756;2023-11-19T10:53:12;15.30;47.70
63017;DHT22;50274;45.640;11.756;2023-11-19T10:55:41;15.30;48.40
63017;DHT22;50274;45.640;11.756;2023-11-19T10:58:10;15.30;48.70
63017;DHT22;50274;45.640;11.756;2023-11-19T11:05:41;15.70;46.70
63017;DHT22;50274;45.640;11.756;2023-11-19T11:08:08;15.60;46.30
63017;DHT22;50274;45.640;11.756;2023-11-19T11:10:59;15.40;45.90
63017;DHT22;50274;45.640;11.756;2023-11-19T11:13:26;15.20;46.40
63017;DHT22;50274;45.640;11.756;2023-11-19T11:15:56;15.10;47.40
63017;DHT22;50274;45.640;11.756;2023-11-19T11:18:23;15.10;47.70
63017;DHT22;50274;45.640;11.756;2023-11-19T11:20:54;15.20;48.00
63017;DHT22;50274;45.640;11.756;2023-11-19T11:32:10;15.10;48.10
63017;DHT22;50274;45.640;11.756;2023-11-19T11:38:06;15.00;48.70
63017;DHT22;50274;45.640;11.756;2023-11-19T11:40:32;15.10;48.60
63017;DHT22;50274;45.640;11.756;2023-11-19T11:42:58;15.30;48.20
63017;DHT22;50274;45.640;11.756;2023-11-19T11:45:38;15.60;48.10
63017;DHT22;50274;45.640;11.756;2023-11-19T11:48:08;16.00;47.40
63017;DHT22;50274;45.640;11.756;2023-11-19T11:50:36;16.30;47.00
63017;DHT22;50274;45.640;11.756;2023-11-19T11:53:20;16.60;46.60
63017;DHT22;50274;45.640;11.756;2023-11-19T11:58:17;17.20;45.40
63017;DHT22;50274;45.640;11.756;2023-11-19T12:00:43;17.20;44.60
63017;DHT22;50274;45.640;11.756;2023-11-19T12:03:12;17.30;44.70
63017;DHT22;50274;45.640;11.756;2023-11-19T12:05:42;17.10;44.70
63017;DHT22;50274;45.640;11.756;2023-11-19T12:08:10;16.90;44.60
63017;DHT22;50274;45.640;11.756;2023-11-19T12:10:57;16.60;44.40
63017;DHT22;50274;45.640;11.756;2023-11-19T12:13:24;16.30;44.80
63017;DHT22;50274;45.640;11.756;2023-11-19T12:18:31;16.00;45.30
63017;DHT22;50274;45.640;11.756;2023-11-19T12:20:59;15.90;46.00
63017;DHT22;50274;45.640;11.756;2023-11-19T12:23:29;16.00;46.00
63017;DHT22;50274;45.640;11.756;2023-11-19T12:25:55;16.10;45.70
63017;DHT22;50274;45.640;11.756;2023-11-19T12:28:21;16.10;45.60
63017;DHT22;50274;45.640;11.756;2023-11-19T12:30:49;16.20;45.90
63017;DHT22;50274;45.640;11.756;2023-11-19T12:33:15;16.20;46.00
63017;DHT22;50274;45.640;11.756;2023-11-19T12:35:42;16.20;45.90
63017;DHT22;50274;45.640;11.756;2023-11-19T12:38:18;16.30;46.00
63017;DHT22;50274;45.640;11.756;2023-11-19T12:40:44;16.20;45.70
63017;DHT22;50274;45.640;11.756;2023-11-19T12:43:10;16.30;46.20
63017;DHT22;50274;45.640;11.756;2023-11-19T12:45:36;16.30;46.20
63017;DHT22;50274;45.640;11.756;2023-11-19T12:48:07;16.40;46.10
63017;DHT22;50274;45.640;11.756;2023-11-19T12:50:58;16.60;45.90
63017;DHT22;50274;45.640;11.756;2023-11-19T12:53:26;16.90;45.20
63017;DHT22;50274;45.640;11.756;2023-11-19T12:55:52;17.10;44.90
63017;DHT22;50274;45.640;11.756;2023-11-19T12:58:32;17.10;44.40
63017;DHT22;50274;45.640;11.756;2023-11-19T13:01:06;17.10;44.40
63017;DHT22;50274;45.640;11.756;2023-11-19T13:03:36;17.20;43.70
63017;DHT22;50274;45.640;11.756;2023-11-19T13:06:05;17.30;43.40
63017;DHT22;50274;45.640;11.756;2023-11-19T13:08:41;17.40;43.60
63017;DHT22;50274;45.640;11.756;2023-11-19T13:11:40;17.40;43.00
63017;DHT22;50274;45.640;11.756;2023-11-19T13:14:39;17.50;42.70
63017;DHT22;50274;45.640;11.756;2023-11-19T13:17:05;17.50;43.20
63017;DHT22;50274;45.640;11.756;2023-11-19T13:19:31;17.50;43.50
63017;DHT22;50274;45.640;11.756;2023-11-19T13:21:57;17.50;43.60
63017;DHT22;50274;45.640;11.756;2023-11-19T13:24:22;17.50;43.60
63017;DHT22;50274;45.640;11.756;2023-11-19T13:26:48;17.60;43.40
63017;DHT22;50274;45.640;11.756;2023-11-19T13:29:14;17.60;43.20
63017;DHT22;50274;45.640;11.756;2023-11-19T13:31:40;17.60;43.60
63017;DHT22;50274;45.640;11.756;2023-11-19T13:34:06;17.50;43.60
63017;DHT22;50274;45.640;11.756;2023-11-19T13:36:33;17.40;43.40
63017;DHT22;50274;45.640;11.756;2023-11-19T13:39:00;17.30;43.50
63017;DHT22;50274;45.640;11.756;2023-11-19T13:41:26;17.30;43.40
63017;DHT22;50274;45.640;11.756;2023-11-19T13:43:52;17.30;43.60
63017;DHT22;50274;45.640;11.756;2023-11-19T13:46:19;17.10;43.90
63017;DHT22;50274;45.640;11.756;2023-11-19T13:48:45;17.10;44.00
63017;DHT22;50274;45.640;11.756;2023-11-19T13:51:11;17.00;44.10
63017;DHT22;50274;45.640;11.756;2023-11-19T13:53:37;16.80;44.00
63017;DHT22;50274;45.640;11.756;2023-11-19T13:56:03;16.60;44.70
63017;DHT22;50274;45.640;11.756;2023-11-19T13:58:29;16.50;44.90
63017;DHT22;50274;45.640;11.756;2023-11-19T14:00:55;16.40;45.20
63017;DHT22;50274;45.640;11.756;2023-11-19T14:03:21;16.30;45.30
63017;DHT22;50274;45.640;11.756;2023-11-19T14:05:46;16.20;45.60
63017;DHT22;50274;45.640;11.756;2023-11-19T14:08:12;16.00;45.70
63017;DHT22;50274;45.640;11.756;2023-11-19T14:10:39;16.00;46.20
63017;DHT22;50274;45.640;11.756;2023-11-19T14:13:06;15.90;46.50
63017;DHT22;50274;45.640;11.756;2023-11-19T14:15:32;15.80;46.70
63017;DHT22;50274;45.640;11.756;2023-11-19T14:17:58;15.60;46.80
63017;DHT22;50274;45.640;11.756;2023-11-19T14:20:24;15.50;47.00
63017;DHT22;50274;45.640;11.756;2023-11-19T14:22:51;15.50;47.00
63017;DHT22;50274;45.640;11.756;2023-11-19T14:25:18;15.40;47.10
63017;DHT22;50274;45.640;11.756;2023-11-19T14:27:45;15.30;47.40
63017;DHT22;50274;45.640;11.756;2023-11-19T14:30:14;15.10;47.60
63017;DHT22;50274;45.640;11.756;2023-11-19T14:32:41;15.10;47.90
63017;DHT22;50274;45.640;11.756;2023-11-19T14:35:12;15.00;48.10
63017;DHT22;50274;45.640;11.756;2023-11-19T14:37:38;14.90;48.30
63017;DHT22;50274;45.640;11.756;2023-11-19T14:40:04;14.80;48.50
63017;DHT22;50274;45.640;11.756;2023-11-19T14:42:31;14.70;48.90
63017;DHT22;50274;45.640;11.756;2023-11-19T14:44:58;14.70;49.20
63017;DHT22;50274;45.640;11.756;2023-11-19T14:47:26;14.50;49.60
63017;DHT22;50274;45.640;11.756;2023-11-19T14:49:52;14.50;50.10
63017;DHT22;50274;45.640;11.756;2023-11-19T14:52:18;14.30;50.40
63017;DHT22;50274;45.640;11.756;2023-11-19T14:54:44;14.20;50.50
63017;DHT22;50274;45.640;11.756;2023-11-19T14:57:11;14.10;50.50
63017;DHT22;50274;45.640;11.756;2023-11-19T14:59:37;14.10;50.70
63017;DHT22;50274;45.640;11.756;2023-11-19T15:02:03;14.00;51.10
63017;DHT22;50274;45.640;11.756;2023-11-19T15:04:29;13.90;51.30
63017;DHT22;50274;45.640;11.756;2023-11-19T15:06:59;13.90;51.60
63017;DHT22;50274;45.640;11.756;2023-11-19T15:09:25;13.70;51.90
63017;DHT22;50274;45.640;11.756;2023-11-19T15:11:53;13.70;52.10
63017;DHT22;50274;45.640;11.756;2023-11-19T15:14:19;13.60;52.30
63017;DHT22;50274;45.640;11.756;2023-11-19T15:16:46;13.50;52.60
63017;DHT22;50274;45.640;11.756;2023-11-19T15:19:14;13.50;52.80
63017;DHT22;50274;45.640;11.756;2023-11-19T15:21:41;13.30;53.10
63017;DHT22;50274;45.640;11.756;2023-11-19T15:24:08;13.30;53.40
63017;DHT22;50274;45.640;11.756;2023-11-19T15:26:34;13.20;53.60
63017;DHT22;50274;45.640;11.756;2023-11-19T15:29:04;13.10;53.90
63017;DHT22;50274;45.640;11.756;2023-11-19T15:31:36;13.00;54.10
63017;DHT22;50274;45.640;11.756;2023-11-19T15:34:02;12.90;54.30
63017;DHT22;50274;45.640;11.756;2023-11-19T15:36:28;12.90;54.50
63017;DHT22;50274;45.640;11.756;2023-11-19T15:38:54;12.80;54.60
63017;DHT22;50274;45.640;11.756;2023-11-19T15:41:20;12.70;54.80
63017;DHT22;50274;45.640;11.756;2023-11-19T15:43:46;12.60;55.00
63017;DHT22;50274;45.640;11.756;2023-11-19T15:46:11;12.60;55.20
63017;DHT22;50274;45.640;11.756;2023-11-19T15:48:37;12.50;55.40